This is the latest recevied weather packets stored in our database for station/object W8CEN. If no packets are shown the sender has not sent any weather packets the latest 10 day(s).
| Time | Temp. | Humidity | Pressure | Rain* | Wind** | Luminosity | Snow |
|---|---|---|---|---|---|---|---|
| 1778092134 | 16.11° C | 35% | 990.9 hPa | 0 mm | - | 540 W/m² | - |
| 1778091831 | 16.67° C | 37% | 990.9 hPa | 0 mm | - | 506 W/m² | - |
| 1778091528 | 16.11° C | 40% | 991 hPa | 0 mm | - | 784 W/m² | - |
| 1778091227 | 16.67° C | 42% | 990.9 hPa | 0 mm | - | 684 W/m² | - |
| 1778090923 | 16.11° C | 37% | 990.9 hPa | 0 mm | - | 641 W/m² | - |
| 1778090619 | 16.11° C | 40% | 990.9 hPa | 0 mm | - | 658 W/m² | - |
| 1778090315 | 15.56° C | 43% | 990.9 hPa | 0 mm | - | 419 W/m² | - |
| 1778090012 | 15.56° C | 40% | 990.9 hPa | 0 mm | - | 421 W/m² | - |
| 1778089710 | 15.56° C | 41% | 990.9 hPa | 0 mm | - | 471 W/m² | - |
| 1778089407 | 16.11° C | 39% | 991 hPa | 0 mm | - | 716 W/m² | - |
| 1778089104 | 16.67° C | 40% | 991 hPa | 0 mm | - | 496 W/m² | - |
| 1778088801 | 16.67° C | 39% | 991 hPa | 0 mm | - | 467 W/m² | - |
| 1778088498 | 16.67° C | 37% | 991 hPa | 0 mm | - | 656 W/m² | - |
| 1778088195 | 16.67° C | 39% | 991.1 hPa | 0 mm | - | 518 W/m² | - |
| 1778087892 | 15.56° C | 43% | 991.1 hPa | 0 mm | - | 593 W/m² | - |
| 1778087589 | 15.56° C | 37% | 991.3 hPa | 0 mm | - | 699 W/m² | - |
| 1778087287 | 15° C | 39% | 991.5 hPa | 0 mm | - | 1044 W/m² | - |
| 1778086983 | 15.56° C | 42% | 991.3 hPa | 0 mm | - | 300 W/m² | - |
| 1778086682 | 15.56° C | 41% | 991.4 hPa | 0 mm | - | 284 W/m² | - |
| 1778086379 | 16.11° C | 42% | 991.2 hPa | 0 mm | - | 258 W/m² | - |
| 1778086075 | 15.56° C | 39% | 991.4 hPa | 0 mm | - | 1071 W/m² | - |
| 1778085772 | 16.11° C | 35% | 991.2 hPa | 0 mm | - | 854 W/m² | - |
| 1778085469 | 16.67° C | 40% | 991.4 hPa | 0 mm | - | 905 W/m² | - |
| 1778085164 | 15.56° C | 41% | 991.4 hPa | 0 mm | - | 861 W/m² | - |
| 1778084860 | 16.11° C | 35% | 991.5 hPa | 0 mm | - | 867 W/m² | - |
* Rain latest hour (hover to see other rain measurements)
** Current wind speed in m/s (hover to see current wind gust speed)